createdAt,value
2022-12-23T00:01:50.131Z,99.99
2022-12-23T00:04:16.881Z,99.99
2022-12-23T00:06:43.507Z,99.99
2022-12-23T00:09:10.290Z,99.99
2022-12-23T00:11:36.852Z,99.99
2022-12-23T00:14:22.254Z,99.99
2022-12-23T00:16:50.660Z,99.99
2022-12-23T00:19:17.566Z,99.99
2022-12-23T00:21:44.271Z,99.99
2022-12-23T00:24:11.731Z,99.99
2022-12-23T00:26:38.580Z,99.99
2022-12-23T00:29:05.222Z,99.99
2022-12-23T00:31:31.845Z,99.99
2022-12-23T00:33:58.457Z,99.99
2022-12-23T00:36:28.741Z,99.99
2022-12-23T00:39:15.357Z,99.99
2022-12-23T00:42:00.798Z,99.99
2022-12-23T00:44:27.645Z,99.99
2022-12-23T00:46:54.410Z,99.99
2022-12-23T00:49:40.231Z,99.99
2022-12-23T00:52:10.707Z,99.99
2022-12-23T00:54:37.660Z,99.99
2022-12-23T00:57:04.260Z,99.99
2022-12-23T00:59:30.915Z,99.99
2022-12-23T01:02:16.125Z,99.99
2022-12-23T01:05:01.800Z,99.99
2022-12-23T01:07:28.600Z,99.99
2022-12-23T01:09:55.241Z,99.99
2022-12-23T01:12:22.005Z,99.99
2022-12-23T01:14:48.691Z,99.99
2022-12-23T01:17:15.524Z,99.99
2022-12-23T01:19:42.291Z,99.99
2022-12-23T01:22:09.286Z,99.99
2022-12-23T01:24:36.192Z,99.99
2022-12-23T01:27:02.961Z,99.99
2022-12-23T01:29:29.825Z,99.99
2022-12-23T01:31:57.721Z,99.99
2022-12-23T01:34:24.411Z,99.99
2022-12-23T01:36:51.040Z,99.99
2022-12-23T01:39:17.720Z,99.99
2022-12-23T01:42:02.912Z,99.99
2022-12-23T01:44:48.174Z,99.99
2022-12-23T01:47:49.139Z,99.99
2022-12-23T01:50:21.835Z,99.99
2022-12-23T01:53:03.091Z,99.99
2022-12-23T01:55:38.592Z,99.99
2022-12-23T01:58:13.125Z,99.99
2022-12-23T02:01:00.037Z,99.99
2022-12-23T02:03:45.317Z,99.99
2022-12-23T02:06:45.185Z,99.99
2022-12-23T02:09:17.710Z,99.99
2022-12-23T02:11:59.333Z,99.99
2022-12-23T02:14:57.171Z,99.99
2022-12-23T02:17:35.727Z,99.99
2022-12-23T02:20:39.850Z,99.99
2022-12-23T02:23:34.327Z,99.99
2022-12-23T02:26:22.287Z,99.99
2022-12-23T02:29:23.088Z,99.99
2022-12-23T02:32:09.772Z,99.99
2022-12-23T02:34:49.017Z,99.99
2022-12-23T02:37:32.490Z,99.99
2022-12-23T02:40:03.135Z,99.99
2022-12-23T02:42:41.386Z,99.99
2022-12-23T02:45:13.879Z,99.99
2022-12-23T02:47:50.618Z,99.99
2022-12-23T02:50:26.274Z,99.99
2022-12-23T02:52:57.256Z,99.99
2022-12-23T02:55:29.923Z,99.99
2022-12-23T02:57:59.943Z,99.99
2022-12-23T03:00:26.890Z,99.99
2022-12-23T03:02:53.867Z,99.99
2022-12-23T03:05:30.715Z,99.99
2022-12-23T03:08:02.706Z,99.99
2022-12-23T03:10:48.280Z,99.99
2022-12-23T03:13:45.698Z,99.99
2022-12-23T03:16:12.863Z,99.99
2022-12-23T03:18:52.539Z,99.99
2022-12-23T03:21:31.215Z,99.99
2022-12-23T03:24:23.225Z,99.99
2022-12-23T03:27:27.403Z,99.99
2022-12-23T03:30:00.115Z,99.99
2022-12-23T03:32:29.320Z,99.99
2022-12-23T03:34:59.112Z,99.99
2022-12-23T03:37:28.297Z,99.99
2022-12-23T03:40:01.446Z,99.99
2022-12-23T03:42:37.262Z,99.99
2022-12-23T03:45:37.674Z,99.99
2022-12-23T03:48:04.057Z,99.99
2022-12-23T03:50:32.310Z,99.99
2022-12-23T03:53:06.187Z,99.99
2022-12-23T03:55:45.986Z,99.99
2022-12-23T03:58:45.022Z,99.99
2022-12-23T04:01:30.246Z,99.99
2022-12-23T04:04:18.784Z,99.99
2022-12-23T04:06:54.846Z,99.99
2022-12-23T04:09:23.063Z,99.99
2022-12-23T04:11:50.189Z,99.99
2022-12-23T04:14:18.200Z,99.99
2022-12-23T04:16:46.009Z,99.99
2022-12-23T04:19:12.729Z,99.99
2022-12-23T04:21:39.353Z,99.99
2022-12-23T04:24:06.148Z,99.99
2022-12-23T04:26:32.867Z,99.99
2022-12-23T04:28:59.422Z,99.99
2022-12-23T04:31:26.047Z,99.99
2022-12-23T04:33:52.706Z,99.99
2022-12-23T04:36:19.286Z,99.99
2022-12-23T04:38:46.088Z,99.99
2022-12-23T04:41:12.684Z,99.99
2022-12-23T04:43:39.258Z,99.99
2022-12-23T04:46:05.989Z,99.99
2022-12-23T04:48:32.688Z,99.99
2022-12-23T04:51:02.786Z,99.99
2022-12-23T04:53:29.622Z,99.99
2022-12-23T04:55:56.822Z,99.99
2022-12-23T04:58:25.102Z,99.99
2022-12-23T05:01:07.623Z,99.99
2022-12-23T05:03:34.722Z,99.99
2022-12-23T05:06:01.374Z,99.99
2022-12-23T05:08:28.389Z,99.99
2022-12-23T05:10:55.198Z,99.99
2022-12-23T05:13:22.312Z,99.99
2022-12-23T05:15:50.491Z,99.99
2022-12-23T05:18:17.636Z,99.99
2022-12-23T05:20:44.719Z,99.99
2022-12-23T05:23:11.658Z,99.99
2022-12-23T05:25:39.465Z,99.99
2022-12-23T05:28:10.261Z,99.99
2022-12-23T05:30:36.829Z,99.99
2022-12-23T05:33:03.503Z,99.99
2022-12-23T05:35:30.089Z,99.99
2022-12-23T05:37:57.653Z,99.99
2022-12-23T05:40:29.287Z,99.99
2022-12-23T05:42:57.559Z,99.99
2022-12-23T05:45:24.237Z,99.99
2022-12-23T05:47:50.822Z,99.99
2022-12-23T05:50:17.481Z,99.99
2022-12-23T05:52:44.091Z,99.99
2022-12-23T05:55:10.771Z,99.99
2022-12-23T05:57:37.453Z,99.99
2022-12-23T06:00:04.901Z,99.99
2022-12-23T06:02:31.691Z,99.99
2022-12-23T06:04:58.398Z,99.99
2022-12-23T06:07:25.065Z,99.99
2022-12-23T06:09:51.706Z,99.99
2022-12-23T06:12:18.248Z,99.99
2022-12-23T06:14:44.776Z,99.99
2022-12-23T06:17:11.330Z,99.99
2022-12-23T06:19:37.866Z,99.99
2022-12-23T06:22:05.621Z,99.99
2022-12-23T06:24:32.284Z,99.99
2022-12-23T06:26:58.856Z,99.99
2022-12-23T06:29:25.588Z,99.99
2022-12-23T06:31:52.255Z,99.99
2022-12-23T06:34:18.954Z,99.99
2022-12-23T06:36:45.578Z,99.99
2022-12-23T06:39:12.299Z,99.99
2022-12-23T06:41:38.862Z,99.99
2022-12-23T06:44:05.551Z,99.99
2022-12-23T06:46:32.263Z,99.99
2022-12-23T06:48:58.992Z,99.99
2022-12-23T06:51:25.641Z,99.99
2022-12-23T06:53:52.214Z,99.99
2022-12-23T06:56:19.243Z,99.99
2022-12-23T06:58:45.907Z,99.99
2022-12-23T07:01:12.545Z,99.99
2022-12-23T07:03:39.250Z,99.99
2022-12-23T07:06:06.238Z,99.99
2022-12-23T07:08:32.835Z,99.99
2022-12-23T07:11:00.439Z,99.99
2022-12-23T07:13:27.343Z,99.99
2022-12-23T07:15:53.968Z,99.99
2022-12-23T07:18:22.396Z,99.99
2022-12-23T07:20:49.842Z,99.99
2022-12-23T07:23:16.784Z,99.99
2022-12-23T07:25:43.808Z,99.99
2022-12-23T07:28:10.390Z,99.99
2022-12-23T07:30:36.891Z,99.99
2022-12-23T07:33:03.755Z,99.99
2022-12-23T07:35:30.378Z,99.99
2022-12-23T07:37:56.967Z,99.99
2022-12-23T07:40:24.700Z,99.99
2022-12-23T07:42:58.851Z,99.99
2022-12-23T07:45:26.756Z,99.99
2022-12-23T07:47:58.104Z,99.99
2022-12-23T07:50:25.874Z,99.99
2022-12-23T07:52:53.497Z,99.99
2022-12-23T07:55:20.546Z,99.99
2022-12-23T07:57:51.228Z,99.99
2022-12-23T08:00:19.207Z,99.99
2022-12-23T08:02:46.621Z,99.99
2022-12-23T08:05:13.990Z,99.99
2022-12-23T08:07:42.057Z,99.99
2022-12-23T08:10:09.178Z,99.99
2022-12-23T08:12:35.779Z,99.99
2022-12-23T08:15:02.314Z,99.99
2022-12-23T08:17:30.345Z,99.99
2022-12-23T08:19:57.571Z,99.99
2022-12-23T08:22:24.774Z,99.99
2022-12-23T08:24:53.092Z,99.99
2022-12-23T08:27:19.675Z,99.99
2022-12-23T08:29:46.244Z,99.99
2022-12-23T08:32:13.028Z,99.99
2022-12-23T08:34:39.612Z,99.99
2022-12-23T08:37:06.429Z,99.99
2022-12-23T08:39:33.119Z,99.99
2022-12-23T08:41:59.734Z,99.99
2022-12-23T08:44:29.757Z,99.99
2022-12-23T08:46:57.639Z,99.99
2022-12-23T08:49:24.307Z,99.99
2022-12-23T08:51:51.188Z,99.99
2022-12-23T08:54:20.235Z,99.99
2022-12-23T08:56:46.820Z,99.99
2022-12-23T08:59:19.174Z,99.99
2022-12-23T09:01:47.524Z,99.99
2022-12-23T09:04:14.339Z,99.99
2022-12-23T09:06:42.406Z,99.99
2022-12-23T09:09:11.532Z,99.99
2022-12-23T09:11:38.462Z,99.99
2022-12-23T09:14:06.570Z,99.99
2022-12-23T09:16:33.256Z,99.99
2022-12-23T09:18:59.911Z,99.99
2022-12-23T09:21:26.844Z,99.99
2022-12-23T09:23:53.673Z,99.69
2022-12-23T09:26:25.956Z,99.94
2022-12-23T09:28:52.860Z,99.87
2022-12-23T09:31:20.457Z,99.45
2022-12-23T09:33:49.049Z,99.88
2022-12-23T09:36:16.163Z,99.99
2022-12-23T09:38:42.768Z,99.99
2022-12-23T09:41:40.390Z,99.93
2022-12-23T09:44:31.537Z,99.99
2022-12-23T09:47:02.256Z,99.99
2022-12-23T09:49:29.307Z,99.99
2022-12-23T09:52:03.031Z,99.99
2022-12-23T09:54:40.039Z,99.99
2022-12-23T09:57:09.647Z,99.99
2022-12-23T10:00:11.091Z,99.99
2022-12-23T10:03:14.001Z,99.99
2022-12-23T10:06:06.081Z,99.99
2022-12-23T10:08:40.029Z,99.99
2022-12-23T10:11:11.877Z,99.99
2022-12-23T10:13:50.363Z,99.99
2022-12-23T10:16:30.364Z,99.99
2022-12-23T10:19:15.557Z,99.99
2022-12-23T10:22:15.057Z,99.99
2022-12-23T10:24:45.056Z,99.99
2022-12-23T10:27:40.641Z,99.99
2022-12-23T10:30:50.888Z,99.99
2022-12-23T10:33:07.459Z,99.99
2022-12-23T10:35:43.019Z,99.99
2022-12-23T10:38:15.706Z,99.99
2022-12-23T10:40:57.464Z,99.99
2022-12-23T10:43:27.241Z,99.99
2022-12-23T10:46:21.701Z,99.99
2022-12-23T10:48:57.489Z,99.99
2022-12-23T10:51:29.985Z,99.99
2022-12-23T10:54:02.135Z,99.99
2022-12-23T10:56:30.589Z,99.99
2022-12-23T10:59:00.607Z,99.99
2022-12-23T11:01:29.983Z,99.99
2022-12-23T11:04:12.496Z,99.99
2022-12-23T11:06:46.455Z,99.99
2022-12-23T11:09:19.101Z,99.99
2022-12-23T11:12:07.735Z,99.99
2022-12-23T11:14:40.028Z,99.99
2022-12-23T11:17:30.043Z,99.99
2022-12-23T11:20:33.911Z,99.99
2022-12-23T11:23:03.410Z,99.99
2022-12-23T11:25:43.811Z,99.99
2022-12-23T11:28:10.303Z,99.99
2022-12-23T11:31:11.921Z,99.99
2022-12-23T11:33:45.526Z,99.99
2022-12-23T11:36:12.460Z,99.99
2022-12-23T11:38:59.259Z,99.99
2022-12-23T11:41:29.215Z,99.89
2022-12-23T11:44:21.127Z,99.97
2022-12-23T11:46:48.160Z,99.99
2022-12-23T11:49:26.521Z,99.95
2022-12-23T11:52:11.810Z,99.99
2022-12-23T11:54:38.961Z,99.90
2022-12-23T11:57:16.510Z,99.55
2022-12-23T11:59:48.863Z,99.80
2022-12-23T12:02:15.686Z,99.80
2022-12-23T12:04:42.652Z,99.31
2022-12-23T12:07:14.323Z,99.57
2022-12-23T12:09:43.371Z,99.17
2022-12-23T12:12:19.344Z,99.30
2022-12-23T12:14:58.858Z,99.00
2022-12-23T12:17:39.393Z,98.79
2022-12-23T12:20:11.518Z,99.23
2022-12-23T12:22:38.388Z,99.28
2022-12-23T12:25:15.904Z,99.04
2022-12-23T12:27:47.452Z,98.68
2022-12-23T12:30:18.947Z,98.66
2022-12-23T12:33:05.032Z,98.28
2022-12-23T12:36:07.772Z,98.82
2022-12-23T12:38:37.927Z,98.22
2022-12-23T12:41:28.254Z,98.21
2022-12-23T12:44:27.235Z,97.82
2022-12-23T12:46:58.801Z,97.96
2022-12-23T12:49:34.732Z,98.53
2022-12-23T12:52:16.420Z,98.26
2022-12-23T12:54:55.300Z,98.62
2022-12-23T12:57:23.669Z,98.33
2022-12-23T12:59:54.874Z,97.90
2022-12-23T13:02:43.224Z,97.77
2022-12-23T13:05:34.549Z,97.91
2022-12-23T13:08:27.034Z,97.42
2022-12-23T13:10:59.952Z,97.59
2022-12-23T13:13:42.143Z,97.89
2022-12-23T13:16:23.750Z,98.06
2022-12-23T13:19:03.325Z,98.42
2022-12-23T13:21:43.387Z,98.50
2022-12-23T13:24:26.030Z,98.76
2022-12-23T13:27:00.654Z,98.78
2022-12-23T13:29:54.533Z,98.87
2022-12-23T13:33:06.797Z,99.10
2022-12-23T13:36:06.572Z,99.20
2022-12-23T13:38:47.364Z,99.24
2022-12-23T13:41:39.928Z,99.10
2022-12-23T13:44:10.685Z,98.86
2022-12-23T13:46:52.251Z,98.74
2022-12-23T13:49:47.416Z,99.04
2022-12-23T13:52:24.669Z,99.12
2022-12-23T13:55:12.315Z,98.86
2022-12-23T13:57:56.631Z,98.73
2022-12-23T14:00:28.727Z,98.88
2022-12-23T14:02:59.889Z,99.21
2022-12-23T14:05:33.984Z,99.12
2022-12-23T14:08:04.989Z,99.16
2022-12-23T14:10:33.836Z,99.64
2022-12-23T14:13:04.480Z,99.81
2022-12-23T14:15:54.556Z,99.89
2022-12-23T14:18:30.851Z,99.99
2022-12-23T14:21:34.412Z,99.99
2022-12-23T14:24:19.919Z,99.99
2022-12-23T14:27:19.399Z,99.99
2022-12-23T14:30:06.859Z,99.99
2022-12-23T14:32:45.523Z,99.99
2022-12-23T14:35:26.876Z,99.99
2022-12-23T14:38:14.788Z,99.99
2022-12-23T14:40:57.812Z,99.99
2022-12-23T14:43:32.390Z,99.99
2022-12-23T14:46:06.833Z,99.99
2022-12-23T14:48:33.670Z,99.99
2022-12-23T14:51:20.069Z,99.99
2022-12-23T14:53:53.605Z,99.99
2022-12-23T14:56:38.521Z,99.99
2022-12-23T14:59:20.358Z,99.99
2022-12-23T15:01:46.928Z,99.99
2022-12-23T15:04:13.551Z,99.99
2022-12-23T15:06:47.087Z,99.99
2022-12-23T15:09:22.762Z,99.99
2022-12-23T15:11:50.156Z,99.99
2022-12-23T15:14:26.878Z,99.99
2022-12-23T15:16:53.535Z,99.99
2022-12-23T15:19:26.471Z,99.99
2022-12-23T15:22:22.167Z,99.99
2022-12-23T15:24:50.588Z,99.99
2022-12-23T15:27:28.807Z,99.99
2022-12-23T15:29:56.655Z,99.99
2022-12-23T15:32:24.728Z,99.99
2022-12-23T15:34:52.478Z,99.99
2022-12-23T15:37:30.777Z,99.99
2022-12-23T15:40:06.222Z,99.99
2022-12-23T15:42:38.245Z,99.99
2022-12-23T15:45:22.923Z,99.99
2022-12-23T15:47:50.215Z,99.99
2022-12-23T15:50:18.639Z,99.99
2022-12-23T15:52:47.633Z,99.99
2022-12-23T15:55:29.297Z,99.99
2022-12-23T15:57:56.868Z,99.99
2022-12-23T16:00:25.873Z,99.99
2022-12-23T16:03:04.044Z,99.99
2022-12-23T16:05:38.047Z,99.99
2022-12-23T16:08:29.689Z,99.99
2022-12-23T16:11:18.452Z,99.99
2022-12-23T16:13:59.788Z,99.99
2022-12-23T16:16:40.315Z,99.99
2022-12-23T16:19:36.358Z,99.99
2022-12-23T16:22:06.988Z,99.99
2022-12-23T16:24:33.939Z,99.99
2022-12-23T16:27:00.723Z,99.99
2022-12-23T16:29:27.517Z,99.99
2022-12-23T16:32:01.473Z,99.99
2022-12-23T16:34:30.742Z,99.99
2022-12-23T16:36:57.298Z,99.99
2022-12-23T16:39:24.002Z,99.99
2022-12-23T16:41:50.836Z,99.99
2022-12-23T16:44:17.510Z,99.99
2022-12-23T16:46:47.725Z,99.99
2022-12-23T16:49:31.216Z,99.99
2022-12-23T16:51:59.925Z,99.99
2022-12-23T16:54:26.587Z,99.99
2022-12-23T16:56:53.308Z,99.99
2022-12-23T16:59:20.982Z,99.99
2022-12-23T17:01:49.023Z,99.99
2022-12-23T17:04:15.833Z,99.99
2022-12-23T17:06:42.875Z,99.99
2022-12-23T17:09:10.545Z,99.99
2022-12-23T17:11:52.766Z,99.99
2022-12-23T17:14:25.164Z,99.99
2022-12-23T17:16:52.131Z,99.99
2022-12-23T17:19:27.391Z,99.99
2022-12-23T17:21:59.750Z,99.99
2022-12-23T17:24:27.400Z,99.99
2022-12-23T17:26:55.143Z,99.99
2022-12-23T17:29:21.769Z,99.99
2022-12-23T17:31:49.015Z,99.99
2022-12-23T17:34:23.908Z,99.99
2022-12-23T17:36:51.320Z,99.99
2022-12-23T17:39:19.157Z,99.99
2022-12-23T17:41:46.286Z,99.99
2022-12-23T17:44:17.407Z,99.99
2022-12-23T17:46:45.664Z,99.99
2022-12-23T17:49:12.409Z,99.99
2022-12-23T17:51:40.458Z,99.99
2022-12-23T17:54:07.194Z,99.99
2022-12-23T17:56:34.057Z,99.99
2022-12-23T17:59:00.672Z,99.99
2022-12-23T18:01:30.097Z,99.99
2022-12-23T18:03:58.543Z,99.99
2022-12-23T18:06:27.737Z,99.99
2022-12-23T18:08:54.600Z,99.99
2022-12-23T18:11:37.651Z,99.99
2022-12-23T18:14:05.028Z,99.99
2022-12-23T18:16:31.905Z,99.99
2022-12-23T18:18:58.550Z,99.99
2022-12-23T18:21:27.893Z,99.99
2022-12-23T18:23:57.556Z,99.99
2022-12-23T18:26:24.937Z,99.99
2022-12-23T18:28:53.960Z,99.99
2022-12-23T18:31:24.709Z,99.99
2022-12-23T18:33:52.109Z,99.99
2022-12-23T18:36:27.294Z,99.99
2022-12-23T18:38:54.681Z,99.99
2022-12-23T18:41:22.210Z,99.99
2022-12-23T18:43:49.073Z,99.99
2022-12-23T18:46:16.160Z,99.99
2022-12-23T18:48:43.009Z,99.99
2022-12-23T18:51:17.718Z,99.99
2022-12-23T18:53:45.992Z,99.99
2022-12-23T18:56:20.064Z,99.99
2022-12-23T18:58:47.323Z,99.99
2022-12-23T19:01:15.687Z,99.99
2022-12-23T19:03:43.265Z,99.99
2022-12-23T19:06:12.670Z,99.99
2022-12-23T19:08:40.273Z,99.99
2022-12-23T19:11:17.632Z,99.99
2022-12-23T19:13:44.964Z,99.99
2022-12-23T19:16:20.378Z,99.99
2022-12-23T19:18:48.351Z,99.99
2022-12-23T19:21:16.250Z,99.99
2022-12-23T19:23:43.697Z,99.99
2022-12-23T19:26:12.297Z,99.99
2022-12-23T19:28:41.354Z,99.99
2022-12-23T19:31:09.630Z,99.99
2022-12-23T19:33:37.734Z,99.99
2022-12-23T19:36:12.222Z,99.99
2022-12-23T19:38:39.089Z,99.99
2022-12-23T19:41:07.370Z,99.99
2022-12-23T19:43:35.894Z,99.99
2022-12-23T19:46:06.064Z,99.99
2022-12-23T19:48:33.387Z,99.99
2022-12-23T19:51:03.261Z,99.99
2022-12-23T19:53:30.113Z,99.99
2022-12-23T19:56:05.409Z,99.99
2022-12-23T19:58:34.378Z,99.99
2022-12-23T20:01:12.135Z,99.99
2022-12-23T20:03:40.338Z,99.99
2022-12-23T20:06:08.712Z,99.99
2022-12-23T20:08:35.442Z,99.99
2022-12-23T20:11:04.569Z,99.99
2022-12-23T20:13:31.211Z,99.99
2022-12-23T20:15:57.942Z,99.99
2022-12-23T20:18:24.739Z,99.99
2022-12-23T20:20:51.630Z,99.99
2022-12-23T20:23:18.259Z,99.99
2022-12-23T20:25:45.329Z,99.99
2022-12-23T20:28:12.153Z,99.99
2022-12-23T20:30:38.768Z,99.99
2022-12-23T20:33:05.340Z,99.99
2022-12-23T20:35:32.024Z,99.99
2022-12-23T20:37:58.871Z,99.99
2022-12-23T20:40:25.545Z,99.99
2022-12-23T20:42:52.288Z,99.99
2022-12-23T20:45:20.831Z,99.99
2022-12-23T20:47:47.823Z,99.99
2022-12-23T20:50:14.699Z,99.99
2022-12-23T20:52:41.346Z,99.99
2022-12-23T20:55:08.292Z,99.99
2022-12-23T20:57:35.874Z,99.99
2022-12-23T21:00:04.610Z,99.99
2022-12-23T21:02:31.278Z,99.99
2022-12-23T21:04:57.883Z,99.99
2022-12-23T21:07:26.226Z,99.99
2022-12-23T21:09:52.897Z,99.99
2022-12-23T21:12:19.515Z,99.99
2022-12-23T21:14:46.134Z,99.99
2022-12-23T21:17:12.759Z,99.99
2022-12-23T21:19:39.362Z,99.99
2022-12-23T21:22:07.972Z,99.99
2022-12-23T21:24:34.569Z,99.99
2022-12-23T21:27:01.230Z,99.99
2022-12-23T21:29:27.871Z,99.99
2022-12-23T21:31:55.193Z,99.99
2022-12-23T21:34:22.198Z,99.99
2022-12-23T21:36:48.851Z,99.99
2022-12-23T21:39:16.527Z,99.99
2022-12-23T21:41:43.439Z,99.99
2022-12-23T21:44:13.408Z,99.99
2022-12-23T21:46:40.090Z,99.99
2022-12-23T21:49:06.696Z,99.99
2022-12-23T21:51:40.794Z,99.99
2022-12-23T21:54:09.681Z,99.99
2022-12-23T21:56:36.564Z,99.99
2022-12-23T21:59:06.716Z,99.99
2022-12-23T22:01:33.839Z,99.99
2022-12-23T22:04:00.772Z,99.99
2022-12-23T22:06:30.213Z,99.99
2022-12-23T22:08:57.448Z,99.99
2022-12-23T22:11:26.747Z,99.99
2022-12-23T22:13:55.708Z,99.99
2022-12-23T22:16:24.457Z,99.99
2022-12-23T22:18:51.923Z,99.99
2022-12-23T22:21:22.000Z,99.99
2022-12-23T22:23:50.076Z,99.99
2022-12-23T22:26:25.191Z,99.99
2022-12-23T22:28:54.184Z,99.99
2022-12-23T22:31:38.107Z,99.99
2022-12-23T22:34:06.256Z,99.99
2022-12-23T22:36:33.229Z,99.99
2022-12-23T22:39:01.849Z,99.99
2022-12-23T22:41:30.053Z,99.99
2022-12-23T22:43:57.517Z,99.99
2022-12-23T22:46:24.970Z,99.99
2022-12-23T22:48:52.518Z,99.99
2022-12-23T22:51:23.667Z,99.99
2022-12-23T22:53:50.349Z,99.99
2022-12-23T22:56:18.745Z,99.99
2022-12-23T22:58:45.641Z,99.99
2022-12-23T23:01:33.447Z,99.99
2022-12-23T23:04:01.734Z,99.99
2022-12-23T23:06:34.237Z,99.99
2022-12-23T23:09:01.502Z,99.99
2022-12-23T23:11:28.690Z,99.99
2022-12-23T23:13:55.748Z,99.99
2022-12-23T23:16:24.864Z,99.99
2022-12-23T23:18:52.301Z,99.99
2022-12-23T23:21:19.055Z,99.99
2022-12-23T23:23:46.401Z,99.99
2022-12-23T23:26:13.421Z,99.99
2022-12-23T23:28:41.012Z,99.99
2022-12-23T23:33:55.648Z,99.99
2022-12-23T23:36:22.338Z,99.99
2022-12-23T23:38:48.908Z,99.99
2022-12-23T23:41:20.719Z,99.99
2022-12-23T23:43:49.682Z,99.99
2022-12-23T23:46:16.542Z,99.99
2022-12-23T23:48:43.209Z,99.99
2022-12-23T23:51:09.904Z,99.99
2022-12-23T23:53:36.564Z,99.99
2022-12-23T23:56:07.583Z,99.99
2022-12-23T23:58:35.490Z,99.99
